• Join FlightAware (Why Join?)
  • Login
  • US Flag 
08:26AM EDT


 

Airport Tracker/Info


-or-


 

Live Flight TrackerFlight Track Log ✈ AAL1326 ✈ 11-May-2013 ✈ KORD - KFLL

Flight Track Log - Related Links

Times and Time Zones

All times are in EDT time to prevent confusion due to time zone crossing. See the AAL1326 flight status page for this flight to view local times or setup timezone preferences in your user account.

Time Position Orientation Groundspeed Altitude Reporting Facility
EDT Latitude Longitude Course Direction KTS MPH feet Rate Location/Type
06:58PM 41.9530 -87.8990 217° Southwest 174 200 900  Level FlightAware
06:58PM 41.9360 -87.9150 215° Southwest 179 206 2,300 2,580 Climbing FlightAware
06:59PM 41.9120 -87.9360 213° Southwest 225 259 3,300 2,280 Climbing FlightAware
06:59PM 41.8840 -87.9620 215° Southwest 259 298 4,600 1,800 Climbing FlightAware
06:59PM 41.8600 -87.9860 217° Southwest 268 308 5,000 420 Climbing FlightAware
07:00PM 41.8260 -88.0090 207° Southwest 277 319 5,000 840 Level FlightAware
07:01PM 41.7760 -88.0000 172° South 282 325 6,000 2,460 Climbing FlightAware
07:01PM 41.7370 -87.9860 165° South 288 331 7,900 3,660 Climbing FlightAware
07:02PM 41.7060 -87.9760 166° South 293 337 9,400 3,600 Climbing FlightAware
07:02PM 41.6460 -87.9550 165° South 298 343 12,100 2,880 Climbing FlightAware
07:03PM 41.5890 -87.9350 165° South 330 380 13,500 1,620 Climbing FlightAware
07:04PM 41.5120 -87.9120 167° South 390 449 14,400 2,040 Climbing FlightAware
07:04PM 41.4440 -87.8900 166° South 394 453 16,400 3,000 Climbing FlightAware
07:05PM 41.3760 -87.8770 172° South 379 436 18,400 2,820 Climbing FlightAware
07:06PM 41.3040 -87.8840 184° South 382 440 20,200 2,400 Climbing FlightAware
07:07PM 41.1970 -87.8910 183° South 407 468 22,400 2,220 Climbing FlightAware
07:07PM 41.1220 -87.8880 178° South 414 476 23,900 2,220 Climbing FlightAware
07:08PM 41.0300 -87.8850 179° South 419 482 25,600 1,920 Climbing FlightAware
07:09PM 40.9490 -87.8830 179° South 424 488 26,800 1,620 Climbing FlightAware
07:09PM 40.8830 -87.8810 179° South 428 493 27,800 1,800 Climbing FlightAware
07:10PM 40.7850 -87.8780 179° South 430 495 29,200 1,800 Climbing FlightAware
07:11PM 40.7210 -87.8760 179° South 430 495 30,200 2,040 Climbing FlightAware
07:12PM 40.6220 -87.8740 179° South 416 479 32,100 2,040 Climbing FlightAware
07:12PM 40.5310 -87.8710 179° South 410 472 33,500 1,620 Climbing FlightAware
07:13PM 40.4570 -87.8690 179° South 409 471 34,400 1,080 Climbing FlightAware
07:14PM 40.3800 -87.8660 178° South 417 480 35,000 780 Climbing FlightAware
07:14PM 40.3060 -87.8640 179° South 423 487 35,500 780 Climbing FlightAware
07:15PM 40.2270 -87.8460 170° South 444 511 36,100 840 Climbing FlightAware
07:16PM 40.1250 -87.8150 167° South 447 514 36,800 1,080 Climbing FlightAware
07:16PM 40.0550 -87.7940 167° South 438 504 37,700 960 Climbing FlightAware
07:17PM 39.9640 -87.7680 168° South 445 512 38,100 300 Climbing FlightAware
07:18PM 39.8780 -87.7420 167° South 455 524 38,200 180 Climbing FlightAware
07:19PM 39.7940 -87.7160 167° South 463 533 38,400 480 Climbing FlightAware
07:20PM 39.6630 -87.6780 167° South 460 529 39,000 360 Climbing FlightAware
07:20PM 39.5910 -87.6560 167° South 455 524 39,000  Level FlightAware
07:21PM 39.4980 -87.6290 167° South 453 521 39,000  Level FlightAware
07:22PM 39.4140 -87.6050 168° South 453 521 39,000  Level FlightAware
07:22PM 39.3220 -87.5780 167° South 453 521 39,000  Level FlightAware
07:23PM 39.2410 -87.5540 167° South 453 521 39,000  Level FlightAware
07:24PM 39.1600 -87.5300 167° South 453 521 39,000  Level FlightAware
07:24PM 39.0690 -87.5030 167° South 451 519 39,000  Level FlightAware
07:25PM 38.9870 -87.4790 167° South 451 519 39,000  Level FlightAware
07:26PM 38.8930 -87.4530 168° South 449 517 39,000  Level FlightAware
07:27PM 38.8150 -87.4300 167° South 447 514 39,000  Level FlightAware
07:27PM 38.7220 -87.4030 167° South 447 514 39,000  Level FlightAware
07:28PM 38.6420 -87.3800 167° South 447 514 39,000  Level FlightAware
07:29PM 38.5540 -87.3550 167° South 447 514 39,000  Level FlightAware
07:29PM 38.4720 -87.3310 167° South 446 513 39,000  Level FlightAware
07:30PM 38.3910 -87.3080 167° South 445 512 39,000  Level FlightAware
07:31PM 38.3000 -87.2820 167° South 445 512 39,000  Level FlightAware
07:31PM 38.2190 -87.2590 167° South 445 512 39,000  Level FlightAware
07:32PM 38.1300 -87.2340 168° South 444 511 39,000  Level FlightAware
07:33PM 38.0500 -87.2110 167° South 444 511 39,000  Level FlightAware
07:34PM 37.9660 -87.1880 168° South 447 514 39,000  Level FlightAware
07:34PM 37.8770 -87.1630 167° South 448 516 39,000  Level FlightAware
07:35PM 37.7950 -87.1400 168° South 444 511 39,000  Level FlightAware
07:36PM 37.7050 -87.1140 167° South 435 501 39,000  Level FlightAware
07:36PM 37.6300 -87.0930 167° South 435 501 39,000  Level FlightAware
07:37PM 37.5510 -87.0710 168° South 434 499 39,000  Level FlightAware
07:38PM 37.4620 -87.0470 168° South 434 499 39,000  Level FlightAware
07:38PM 37.3830 -87.0250 168° South 434 499 39,000  Level FlightAware
07:39PM 37.2980 -87.0010 167° South 434 499 39,000  Level FlightAware
07:40PM 37.2180 -86.9790 168° South 433 498 39,000  Level FlightAware
07:41PM 37.1390 -86.9570 167° South 431 496 39,000  Level FlightAware
07:41PM 37.0530 -86.9330 167° South 430 495 39,000  Level FlightAware
07:42PM 37.0185 -86.9239 168° South 430 495 39,000  Level FlightAware ADS-B
07:42PM 36.9601 -86.9081 168° South 430 495 39,000  Level FlightAware ADS-B
07:43PM 36.8958 -86.8907 168° South 430 495 39,000  Level FlightAware ADS-B
07:44PM 36.8090 -86.8650 167° South 429 494 39,000  Level FlightAware
07:44PM 36.7430 -86.8460 167° South 429 494 39,000  Level FlightAware
07:45PM 36.6424 -86.8212 169° South 434 499 39,000  Level FlightAware ADS-B
07:45PM 36.5824 -86.8049 168° South 434 499 39,000  Level FlightAware ADS-B
07:46PM 36.4655 -86.7732 168° South 434 499 39,000  Level FlightAware ADS-B
07:47PM 36.3817 -86.7509 168° South 423 487 39,000  Level FlightAware ADS-B
07:48PM 36.2268 -86.7092 168° South 423 487 39,000  Level FlightAware ADS-B
07:49PM 36.1668 -86.6917 167° South 431 496 39,000  Level FlightAware ADS-B
07:49PM 36.1575 -86.6877 161° South 435 501 39,000  Level FlightAware ADS-B
07:50PM 36.0614 -86.6150 149° Southeast 468 539 39,000  Level FlightAware ADS-B
07:50PM 36.0096 -86.5665 143° Southeast 465 535 39,000  Level FlightAware ADS-B
07:51PM 35.9567 -86.5173 143° Southeast 464 534 39,000  Level FlightAware ADS-B
07:53PM 35.7645 -86.3396 143° Southeast 461 531 39,000  Level FlightAware ADS-B
07:53PM 35.7131 -86.2923 143° Southeast 461 531 39,000  Level FlightAware ADS-B
07:54PM 35.6613 -86.2447 143° Southeast 461 531 39,000  Level FlightAware ADS-B
07:54PM 35.6099 -86.1975 143° Southeast 462 532 39,000  Level FlightAware ADS-B
07:55PM 35.5561 -86.1481 143° Southeast 463 533 39,000  Level FlightAware ADS-B
07:55PM 35.5013 -86.0979 143° Southeast 462 532 39,000  Level FlightAware ADS-B
07:57PM 35.3520 -85.9620 143° Southeast 39,000  Level FlightAware
07:57PM 35.2722 -85.8896 143° Southeast 467 537 39,000  Level FlightAware ADS-B
07:58PM 35.2180 -85.8404 143° Southeast 470 541 39,000  Level FlightAware ADS-B
07:59PM 35.1623 -85.7898 143° Southeast 472 543 39,000  Level FlightAware ADS-B
07:59PM 35.1056 -85.7385 143° Southeast 471 542 39,000  Level FlightAware ADS-B
08:00PM 35.0477 -85.6863 144° Southeast 473 544 39,000  Level FlightAware ADS-B
08:00PM 34.9933 -85.6374 144° Southeast 473 544 39,000  Level FlightAware ADS-B
08:01PM 34.9394 -85.5890 144° Southeast 473 544 39,000  Level FlightAware ADS-B
08:01PM 34.8823 -85.5378 144° Southeast 473 544 39,000  Level FlightAware ADS-B
08:02PM 34.8223 -85.4840 144° Southeast 475 547 39,000  Level FlightAware ADS-B
08:02PM 34.7492 -85.4187 144° Southeast 473 544 39,000  Level FlightAware ADS-B
08:03PM 34.6955 -85.3709 144° Southeast 474 545 39,000  Level FlightAware ADS-B
08:03PM 34.6390 -85.3206 144° Southeast 474 545 39,000  Level FlightAware ADS-B
08:04PM 34.5850 -85.2726 144° Southeast 474 545 39,000  Level FlightAware ADS-B
08:05PM 34.4980 -85.1960 144° Southeast 475 547 39,000  Level FlightAware
08:06PM 34.3586 -85.0719 144° Southeast 476 548 39,000  Level FlightAware ADS-B
08:07PM 34.2937 -85.0150 144° Southeast 477 549 39,000  Level FlightAware ADS-B
08:07PM 34.2312 -84.9602 144° Southeast 477 549 39,000  Level FlightAware ADS-B
08:08PM 34.1770 -84.9126 144° Southeast 479 551 39,000  Level FlightAware ADS-B
08:08PM 34.1221 -84.8645 144° Southeast 480 552 39,000  Level FlightAware ADS-B
08:09PM 34.0375 -84.7904 144° Southeast 482 555 39,000  Level FlightAware ADS-B
08:10PM 33.9290 -84.6960 144° Southeast 476 548 39,000  Level FlightAware
08:11PM 33.8570 -84.6330 144° Southeast 476 548 39,000  Level FlightAware
08:12PM 33.7760 -84.5630 144° Southeast 481 554 39,000  Level FlightAware
08:12PM 33.7040 -84.5000 144° Southeast 476 548 39,000  Level FlightAware
08:13PM 33.6260 -84.4330 144° Southeast 477 549 39,000  Level FlightAware
08:14PM 33.5620 -84.3790 145° Southeast 475 547 39,000  Level FlightAware
08:14PM 33.4871 -84.3152 145° Southeast 476 548 39,000 240 Level FlightAware ADS-B
08:16PM 33.3290 -84.1810 145° Southeast 473 544 39,600 420 Climbing FlightAware
08:17PM 33.2420 -84.1080 145° Southeast 481 554 40,000 240 Climbing FlightAware
08:17PM 33.1660 -84.0440 145° Southeast 481 554 40,000  Level FlightAware
08:18PM 33.0970 -83.9860 145° Southeast 481 554 40,000  Level FlightAware
08:18PM 33.0350 -83.9340 145° Southeast 482 555 40,000  Level FlightAware
08:19PM 32.9400 -83.8540 145° Southeast 475 547 40,000  Level FlightAware
08:20PM 32.8570 -83.7850 145° Southeast 475 547 40,000  Level FlightAware
08:21PM 32.7880 -83.7270 145° Southeast 475 547 40,000  Level FlightAware
08:21PM 32.7280 -83.6760 144° Southeast 475 547 40,000  Level FlightAware
08:22PM 32.6200 -83.5740 141° Southeast 488 562 40,000  Level FlightAware
08:23PM 32.5390 -83.4950 141° Southeast 486 559 40,000  Level FlightAware
08:24PM 32.4750 -83.4310 140° Southeast 484 557 40,000  Level FlightAware
08:24PM 32.4060 -83.3630 140° Southeast 483 556 40,000  Level FlightAware
08:25PM 32.3390 -83.2930 139° Southeast 483 556 40,000  Level FlightAware
08:26PM 32.2820 -83.2340 139° Southeast 483 556 40,000  Level FlightAware
08:26PM 32.2240 -83.1750 139° Southeast 483 556 40,000  Level FlightAware
08:27PM 32.1670 -83.1170 139° Southeast 483 556 40,000  Level FlightAware
08:28PM 32.0950 -83.0430 139° Southeast 483 556 40,000  Level FlightAware
08:29PM 32.0380 -82.9840 139° Southeast 483 556 40,000  Level FlightAware
08:29PM 31.9810 -82.9250 139° Southeast 483 556 40,000  Level FlightAware
08:30PM 31.9090 -82.8520 139° Southeast 483 556 40,000  Level FlightAware
08:31PM 31.8520 -82.7930 139° Southeast 483 556 40,000  Level FlightAware
08:31PM 31.7940 -82.7350 140° Southeast 483 556 40,000  Level FlightAware
08:32PM 31.7370 -82.6760 139° Southeast 483 556 40,000  Level FlightAware
08:33PM 31.6800 -82.6170 139° Southeast 483 556 40,000  Level FlightAware
08:34PM 31.6080 -82.5440 139° Southeast 483 556 40,000  Level FlightAware
08:34PM 31.5510 -82.4860 139° Southeast 483 556 40,000  Level FlightAware
08:35PM 31.3242 -82.4231 139° Southeast 473 544 40,000  Level Jacksonville Center
08:36PM 31.2069 -82.3461 151° Southeast 478 550 40,000  Level Jacksonville Center
08:37PM 31.0878 -82.2692 151° Southeast 478 550 40,000 -60 Level Jacksonville Center
08:38PM 30.9703 -82.1900 150° Southeast 483 556 39,900 -600 Descending Jacksonville Center
08:39PM 30.8592 -82.1158 150° Southeast 478 550 38,900 -960 Descending Jacksonville Center
08:40PM 30.7439 -82.0394 150° Southeast 478 550 38,000 -1,140 Descending Jacksonville Center
08:45PM 30.1780 -81.6710 150° Southeast 437 503 32,000 -1,020 Descending FlightAware
08:45PM 30.1080 -81.6260 151° Southeast 435 501 32,000  Level FlightAware
08:46PM 30.0190 -81.5680 151° Southeast 434 499 32,000  Level FlightAware
08:47PM 29.9440 -81.5200 151° Southeast 433 498 32,000 -180 Level FlightAware
08:48PM 29.9690 -81.5370 329° Northwest 434 499 31,800 -120 Descending FlightAware
08:48PM 29.9100 -81.4980 150° Southeast 434 499 31,800 -900 Level FlightAware
08:49PM 29.6960 -81.3600 151° Southeast 439 505 30,600 -780 Descending FlightAware
08:51PM 29.5170 -81.2480 151° Southeast 441 507 30,000 -300 Descending FlightAware
08:51PM 29.4550 -81.2090 151° Southeast 441 507 30,000  Level FlightAware
08:52PM 29.3470 -81.1410 151° Southeast 444 511 30,000  Level FlightAware
08:53PM 29.2700 -81.0770 144° Southeast 444 511 30,000  Level FlightAware
08:54PM 29.2010 -81.0020 136° Southeast 446 513 30,000  Level FlightAware
08:54PM 29.1460 -80.9670 151° Southeast 432 497 30,000  Level FlightAware
08:55PM 29.0790 -80.9560 172° South 437 503 30,000  Level FlightAware
08:56PM 29.0140 -81.0050 213° Southwest 425 489 30,000  Level FlightAware
08:56PM 28.9470 -81.0370 203° Southwest 435 501 30,000  Level FlightAware
08:57PM 28.8650 -81.0770 203° Southwest 437 503 30,000  Level FlightAware
08:58PM 28.7810 -81.1180 203° Southwest 438 504 30,000  Level FlightAware
08:58PM 28.7060 -81.1540 203° Southwest 438 504 30,000  Level FlightAware
08:59PM 28.6320 -81.1900 203° Southwest 439 505 30,000  Level FlightAware
09:00PM 28.5500 -81.2300 203° Southwest 439 505 30,000  Level FlightAware
09:00PM 28.4620 -81.2720 203° Southwest 438 504 30,000  Level FlightAware
09:01PM 28.3880 -81.3070 203° Southwest 440 506 30,000  Level FlightAware
09:02PM 28.3120 -81.3440 203° Southwest 437 503 30,000  Level FlightAware
09:03PM 28.2290 -81.3840 203° Southwest 439 505 30,000  Level FlightAware
09:03PM 28.1510 -81.4210 203° Southwest 441 507 30,000  Level FlightAware
09:04PM 28.0830 -81.4530 203° Southwest 438 504 30,000  Level FlightAware
09:05PM 27.9900 -81.4980 203° Southwest 436 502 30,000  Level FlightAware
09:05PM 27.9130 -81.5350 203° Southwest 437 503 30,000  Level FlightAware
09:06PM 27.8380 -81.5700 202° Southwest 437 503 30,000  Level FlightAware
09:07PM 27.7700 -81.6020 203° Southwest 437 503 30,000  Level FlightAware
09:07PM 27.6760 -81.6470 203° Southwest 438 504 30,000  Level FlightAware
09:08PM 27.5900 -81.6870 202° Southwest 437 503 30,000  Level FlightAware
09:09PM 27.5160 -81.7310 208° Southwest 436 502 30,000 -420 Level FlightAware
09:09PM 27.4490 -81.7820 214° Southwest 436 502 29,500 -900 Descending FlightAware
09:10PM 27.3720 -81.8410 214° Southwest 448 516 28,800 -1,380 Descending FlightAware
09:11PM 27.2980 -81.8820 206° Southwest 450 518 27,600 -1,860 Descending FlightAware
09:12PM 27.2190 -81.9200 203° Southwest 435 501 26,200 -2,040 Descending FlightAware
09:13PM 27.0870 -81.9800 202° Southwest 424 488 23,700 -2,280 Descending FlightAware
09:13PM 27.0010 -81.9760 178° South 428 493 22,100 -2,340 Descending FlightAware
09:14PM 26.9750 -81.9660 161° South 427 491 21,600 -1,200 Descending FlightAware
09:14PM 26.9070 -81.9200 149° Southeast 427 491 21,000 -480 Descending FlightAware
09:15PM 26.8400 -81.8570 140° Southeast 425 489 21,000  Level FlightAware
09:16PM 26.7900 -81.8090 139° Southeast 426 490 21,000  Level FlightAware
09:16PM 26.7260 -81.7470 139° Southeast 427 491 21,000  Level FlightAware
09:17PM 26.6540 -81.6780 139° Southeast 426 490 21,000  Level FlightAware
09:18PM 26.5950 -81.6220 140° Southeast 424 488 21,000  Level FlightAware
09:19PM 26.5280 -81.5580 139° Southeast 422 486 21,000 -660 Level FlightAware
09:19PM 26.4660 -81.5000 140° Southeast 417 480 20,100 -1,980 Descending FlightAware
09:20PM 26.4100 -81.4470 140° Southeast 401 461 18,400 -3,120 Descending FlightAware
09:21PM 26.3460 -81.3880 140° Southeast 393 452 15,700 -3,480 Descending FlightAware
09:21PM 26.2960 -81.3270 132° Southeast 388 447 13,500 -2,820 Descending FlightAware
09:22PM 26.2610 -81.2600 120° Southeast 380 437 12,000 -2,160 Descending FlightAware
09:23PM 26.2220 -81.1840 120° Southeast 359 413 10,500 -1,320 Descending FlightAware
09:24PM 26.1870 -81.1180 121° Southeast 313 360 10,100 -540 Descending FlightAware
09:24PM 26.1680 -81.0830 121° Southeast 295 339 9,900 -900 Descending FlightAware
09:24PM 26.1470 -81.0450 122° Southeast 285 328 9,300 -1,200 Descending FlightAware
09:25PM 26.1310 -81.0150 121° Southeast 280 322 8,800 -1,200 Descending FlightAware
09:25PM 26.1270 -80.9920 101° East 279 321 8,500 -1,080 Descending FlightAware
09:26PM 26.1280 -80.9490 89° East 279 321 8,000 -1,020 Descending FlightAware
09:26PM 26.1290 -80.9150 88° East 279 321 7,600 -960 Descending FlightAware
09:26PM 26.1300 -80.8860 88° East 280 322 7,300 -780 Descending FlightAware
09:28PM 26.1330 -80.7640 88° East 280 322 6,200 -660 Descending FlightAware
09:29PM 26.1360 -80.7020 87° East 272 313 5,900 -180 Descending FlightAware
09:30PM 26.1380 -80.5920 89° East 276 318 5,900  Level FlightAware
09:31PM 26.1410 -80.4960 88° East 273 314 5,900  Level FlightAware
09:31PM 26.1420 -80.4680 88° East 273 314 5,900  Level FlightAware
09:33PM 26.1470 -80.2950 88° East 277 319 5,900 -420 Level FlightAware
09:35PM 26.1500 -80.1780 88° East 276 318 4,600 -1,080 Descending FlightAware
09:35PM 26.1500 -80.1410 90° East 275 316 4,100 -1,200 Descending FlightAware
09:36PM 26.1520 -80.1000 87° East 273 314 3,500 -1,200 Descending FlightAware
09:36PM 26.1530 -80.0650 88° East 267 307 3,000 -1,200 Descending FlightAware
09:37PM 26.1550 -80.0240 87° East 265 305 2,400 -840 Descending FlightAware
09:37PM 26.1360 -79.9760 114° Southeast 220 253 2,000 -600 Descending FlightAware
09:37PM 26.1260 -79.9730 165° South 208 239 1,900 -180 Descending FlightAware
09:38PM 26.1020 -79.9810 197° South 182 209 1,900  Level FlightAware
09:38PM 26.0890 -80.0020 235° Southwest 182 209 1,900  Level FlightAware
09:39PM 26.0770 -80.0230 238° Southwest 177 204 1,900 -480 Level FlightAware
09:39PM 26.0770 -80.0470 270° West 157 181 1,500 -780 Descending FlightAware
09:40PM 26.0760 -80.0660 267° West 148 170 1,200 -900 Descending FlightAware
09:40PM 26.0760 -80.0900 270° West 148 170 700 -840 Descending FlightAware
09:41PM 26.0770 -80.1130 273° West 145 167 400 -660 Descending FlightAware
09:41PM 26.0770 -80.1310 270° West 147 169 100 -360 Descending FlightAware
09:42PM 26.0770 -80.1490 270° West 147 169 100  Level FlightAware